sensor_id;sensor_type;location;lat;lon;timestamp;P1;durP1;ratioP1;P2;durP2;ratioP2
69008;SDS011;56065;52.472;13.380;2023-01-09T00:01:51;15.90;;;7.30;;
69008;SDS011;56065;52.472;13.380;2023-01-09T00:04:17;14.37;;;5.83;;
69008;SDS011;56065;52.472;13.380;2023-01-09T00:06:43;13.38;;;5.78;;
69008;SDS011;56065;52.472;13.380;2023-01-09T00:09:11;17.25;;;8.43;;
69008;SDS011;56065;52.472;13.380;2023-01-09T00:11:36;15.27;;;6.50;;
69008;SDS011;56065;52.472;13.380;2023-01-09T00:14:02;15.02;;;6.47;;
69008;SDS011;56065;52.472;13.380;2023-01-09T00:16:28;12.97;;;5.33;;
69008;SDS011;56065;52.472;13.380;2023-01-09T00:18:53;13.57;;;5.95;;
69008;SDS011;56065;52.472;13.380;2023-01-09T00:21:19;15.60;;;6.37;;
69008;SDS011;56065;52.472;13.380;2023-01-09T00:23:44;12.70;;;6.23;;
69008;SDS011;56065;52.472;13.380;2023-01-09T00:26:11;14.70;;;6.50;;
69008;SDS011;56065;52.472;13.380;2023-01-09T00:28:39;14.80;;;6.60;;
69008;SDS011;56065;52.472;13.380;2023-01-09T00:31:05;15.10;;;6.43;;
69008;SDS011;56065;52.472;13.380;2023-01-09T00:33:33;14.75;;;6.55;;
69008;SDS011;56065;52.472;13.380;2023-01-09T00:36:00;16.73;;;7.30;;
69008;SDS011;56065;52.472;13.380;2023-01-09T00:38:25;16.05;;;7.03;;
69008;SDS011;56065;52.472;13.380;2023-01-09T00:40:51;14.27;;;6.07;;
69008;SDS011;56065;52.472;13.380;2023-01-09T00:43:18;14.95;;;6.75;;
69008;SDS011;56065;52.472;13.380;2023-01-09T00:45:44;15.85;;;7.05;;
69008;SDS011;56065;52.472;13.380;2023-01-09T00:48:12;14.23;;;6.17;;
69008;SDS011;56065;52.472;13.380;2023-01-09T00:50:40;15.68;;;6.70;;
69008;SDS011;56065;52.472;13.380;2023-01-09T00:53:10;15.50;;;6.63;;
69008;SDS011;56065;52.472;13.380;2023-01-09T00:55:39;17.40;;;8.17;;
69008;SDS011;56065;52.472;13.380;2023-01-09T00:58:05;17.02;;;7.80;;
69008;SDS011;56065;52.472;13.380;2023-01-09T01:00:31;17.17;;;7.43;;
69008;SDS011;56065;52.472;13.380;2023-01-09T01:02:56;14.95;;;6.85;;
69008;SDS011;56065;52.472;13.380;2023-01-09T01:05:21;15.40;;;7.20;;
69008;SDS011;56065;52.472;13.380;2023-01-09T01:08:09;16.80;;;7.43;;
69008;SDS011;56065;52.472;13.380;2023-01-09T01:10:35;18.93;;;7.70;;
69008;SDS011;56065;52.472;13.380;2023-01-09T01:13:00;17.63;;;7.75;;
69008;SDS011;56065;52.472;13.380;2023-01-09T01:15:26;16.27;;;7.30;;
69008;SDS011;56065;52.472;13.380;2023-01-09T01:17:53;14.30;;;6.23;;
69008;SDS011;56065;52.472;13.380;2023-01-09T01:20:18;15.70;;;7.05;;
69008;SDS011;56065;52.472;13.380;2023-01-09T01:22:44;15.17;;;7.10;;
69008;SDS011;56065;52.472;13.380;2023-01-09T01:25:10;17.63;;;7.73;;
69008;SDS011;56065;52.472;13.380;2023-01-09T01:27:37;15.18;;;7.50;;
69008;SDS011;56065;52.472;13.380;2023-01-09T01:30:03;18.25;;;8.20;;
69008;SDS011;56065;52.472;13.380;2023-01-09T01:32:29;16.88;;;7.90;;
69008;SDS011;56065;52.472;13.380;2023-01-09T01:34:54;16.07;;;7.70;;
69008;SDS011;56065;52.472;13.380;2023-01-09T01:37:20;16.50;;;7.80;;
69008;SDS011;56065;52.472;13.380;2023-01-09T01:39:46;17.73;;;8.05;;
69008;SDS011;56065;52.472;13.380;2023-01-09T01:42:12;16.27;;;7.37;;
69008;SDS011;56065;52.472;13.380;2023-01-09T01:53:09;19.50;;;8.48;;
69008;SDS011;56065;52.472;13.380;2023-01-09T01:55:38;18.13;;;8.45;;
69008;SDS011;56065;52.472;13.380;2023-01-09T01:58:08;19.63;;;8.60;;
69008;SDS011;56065;52.472;13.380;2023-01-09T02:00:39;19.70;;;8.80;;
69008;SDS011;56065;52.472;13.380;2023-01-09T02:03:07;17.17;;;8.27;;
69008;SDS011;56065;52.472;13.380;2023-01-09T02:05:33;18.17;;;7.40;;
69008;SDS011;56065;52.472;13.380;2023-01-09T02:08:00;20.48;;;10.25;;
69008;SDS011;56065;52.472;13.380;2023-01-09T02:10:26;18.67;;;7.83;;
69008;SDS011;56065;52.472;13.380;2023-01-09T02:12:52;20.40;;;8.80;;
69008;SDS011;56065;52.472;13.380;2023-01-09T02:15:17;19.90;;;9.53;;
69008;SDS011;56065;52.472;13.380;2023-01-09T02:26:46;20.27;;;8.75;;
69008;SDS011;56065;52.472;13.380;2023-01-09T02:32:13;22.58;;;10.52;;
69008;SDS011;56065;52.472;13.380;2023-01-09T02:42:28;21.90;;;9.93;;
69008;SDS011;56065;52.472;13.380;2023-01-09T02:44:56;22.23;;;8.88;;
69008;SDS011;56065;52.472;13.380;2023-01-09T02:49:51;19.77;;;8.57;;
69008;SDS011;56065;52.472;13.380;2023-01-09T03:00:34;19.33;;;9.40;;
69008;SDS011;56065;52.472;13.380;2023-01-09T03:03:20;19.30;;;9.30;;
69008;SDS011;56065;52.472;13.380;2023-01-09T03:06:00;20.55;;;9.68;;
69008;SDS011;56065;52.472;13.380;2023-01-09T03:08:52;22.67;;;9.68;;
69008;SDS011;56065;52.472;13.380;2023-01-09T03:11:21;22.95;;;9.98;;
69008;SDS011;56065;52.472;13.380;2023-01-09T03:13:54;21.33;;;9.35;;
69008;SDS011;56065;52.472;13.380;2023-01-09T03:16:27;27.08;;;10.80;;
69008;SDS011;56065;52.472;13.380;2023-01-09T03:18:56;21.42;;;10.05;;
69008;SDS011;56065;52.472;13.380;2023-01-09T03:21:24;18.30;;;8.35;;
69008;SDS011;56065;52.472;13.380;2023-01-09T03:23:54;21.27;;;10.27;;
69008;SDS011;56065;52.472;13.380;2023-01-09T03:26:21;23.45;;;10.20;;
69008;SDS011;56065;52.472;13.380;2023-01-09T03:28:47;18.88;;;9.25;;
69008;SDS011;56065;52.472;13.380;2023-01-09T03:31:13;21.57;;;10.63;;
69008;SDS011;56065;52.472;13.380;2023-01-09T03:33:38;19.10;;;8.63;;
69008;SDS011;56065;52.472;13.380;2023-01-09T03:36:04;19.63;;;9.13;;
69008;SDS011;56065;52.472;13.380;2023-01-09T03:38:31;19.03;;;8.97;;
69008;SDS011;56065;52.472;13.380;2023-01-09T03:40:56;20.63;;;9.80;;
69008;SDS011;56065;52.472;13.380;2023-01-09T03:43:21;23.07;;;10.43;;
69008;SDS011;56065;52.472;13.380;2023-01-09T03:45:47;20.43;;;10.00;;
69008;SDS011;56065;52.472;13.380;2023-01-09T03:48:12;20.93;;;10.07;;
69008;SDS011;56065;52.472;13.380;2023-01-09T03:50:37;21.90;;;10.03;;
69008;SDS011;56065;52.472;13.380;2023-01-09T03:53:03;19.80;;;9.27;;
69008;SDS011;56065;52.472;13.380;2023-01-09T03:55:28;20.83;;;9.90;;
69008;SDS011;56065;52.472;13.380;2023-01-09T03:57:53;18.30;;;8.15;;
69008;SDS011;56065;52.472;13.380;2023-01-09T04:00:19;18.27;;;8.73;;
69008;SDS011;56065;52.472;13.380;2023-01-09T04:02:45;22.45;;;9.95;;
69008;SDS011;56065;52.472;13.380;2023-01-09T04:05:10;21.47;;;9.53;;
69008;SDS011;56065;52.472;13.380;2023-01-09T04:07:36;20.50;;;9.27;;
69008;SDS011;56065;52.472;13.380;2023-01-09T04:10:01;19.80;;;9.77;;
69008;SDS011;56065;52.472;13.380;2023-01-09T04:12:27;20.67;;;9.87;;
69008;SDS011;56065;52.472;13.380;2023-01-09T04:14:52;20.27;;;9.23;;
69008;SDS011;56065;52.472;13.380;2023-01-09T04:17:17;18.67;;;9.23;;
69008;SDS011;56065;52.472;13.380;2023-01-09T04:19:43;22.20;;;10.00;;
69008;SDS011;56065;52.472;13.380;2023-01-09T04:22:08;20.10;;;9.47;;
69008;SDS011;56065;52.472;13.380;2023-01-09T04:24:33;20.57;;;9.20;;
69008;SDS011;56065;52.472;13.380;2023-01-09T04:26:59;19.87;;;9.60;;
69008;SDS011;56065;52.472;13.380;2023-01-09T04:29:24;19.20;;;9.30;;
69008;SDS011;56065;52.472;13.380;2023-01-09T04:31:49;19.47;;;9.73;;
69008;SDS011;56065;52.472;13.380;2023-01-09T04:34:15;22.80;;;9.47;;
69008;SDS011;56065;52.472;13.380;2023-01-09T04:36:40;22.40;;;9.95;;
69008;SDS011;56065;52.472;13.380;2023-01-09T04:39:07;18.20;;;9.20;;
69008;SDS011;56065;52.472;13.380;2023-01-09T04:41:32;21.00;;;9.75;;
69008;SDS011;56065;52.472;13.380;2023-01-09T04:44:13;21.13;;;10.40;;
69008;SDS011;56065;52.472;13.380;2023-01-09T04:46:40;20.77;;;9.80;;
69008;SDS011;56065;52.472;13.380;2023-01-09T04:49:05;18.23;;;8.93;;
69008;SDS011;56065;52.472;13.380;2023-01-09T04:51:30;24.70;;;10.73;;
69008;SDS011;56065;52.472;13.380;2023-01-09T04:53:56;19.73;;;10.10;;
69008;SDS011;56065;52.472;13.380;2023-01-09T04:56:21;21.03;;;10.33;;
69008;SDS011;56065;52.472;13.380;2023-01-09T04:58:47;23.03;;;10.73;;
69008;SDS011;56065;52.472;13.380;2023-01-09T05:01:12;22.77;;;9.93;;
69008;SDS011;56065;52.472;13.380;2023-01-09T05:03:37;20.20;;;9.60;;
69008;SDS011;56065;52.472;13.380;2023-01-09T05:06:03;21.13;;;9.67;;
69008;SDS011;56065;52.472;13.380;2023-01-09T05:08:28;22.77;;;10.63;;
69008;SDS011;56065;52.472;13.380;2023-01-09T05:10:54;20.60;;;10.17;;
69008;SDS011;56065;52.472;13.380;2023-01-09T05:13:19;24.77;;;9.80;;
69008;SDS011;56065;52.472;13.380;2023-01-09T05:15:44;20.10;;;9.43;;
69008;SDS011;56065;52.472;13.380;2023-01-09T05:18:10;25.55;;;10.70;;
69008;SDS011;56065;52.472;13.380;2023-01-09T05:20:35;22.83;;;10.97;;
69008;SDS011;56065;52.472;13.380;2023-01-09T05:23:01;23.63;;;10.18;;
69008;SDS011;56065;52.472;13.380;2023-01-09T05:25:27;21.43;;;10.17;;
69008;SDS011;56065;52.472;13.380;2023-01-09T05:27:52;19.10;;;8.70;;
69008;SDS011;56065;52.472;13.380;2023-01-09T05:30:17;21.50;;;9.83;;
69008;SDS011;56065;52.472;13.380;2023-01-09T05:32:43;20.42;;;9.45;;
69008;SDS011;56065;52.472;13.380;2023-01-09T05:35:09;19.83;;;8.53;;
69008;SDS011;56065;52.472;13.380;2023-01-09T05:37:34;23.40;;;10.53;;
69008;SDS011;56065;52.472;13.380;2023-01-09T05:39:59;22.13;;;9.93;;
69008;SDS011;56065;52.472;13.380;2023-01-09T05:42:25;26.17;;;10.93;;
69008;SDS011;56065;52.472;13.380;2023-01-09T05:44:50;25.43;;;10.47;;
69008;SDS011;56065;52.472;13.380;2023-01-09T05:47:15;23.50;;;10.87;;
69008;SDS011;56065;52.472;13.380;2023-01-09T05:49:41;23.13;;;10.73;;
69008;SDS011;56065;52.472;13.380;2023-01-09T05:52:06;22.37;;;10.37;;
69008;SDS011;56065;52.472;13.380;2023-01-09T05:54:32;26.63;;;10.90;;
69008;SDS011;56065;52.472;13.380;2023-01-09T05:56:57;25.00;;;10.00;;
69008;SDS011;56065;52.472;13.380;2023-01-09T05:59:23;22.30;;;10.30;;
69008;SDS011;56065;52.472;13.380;2023-01-09T06:01:48;24.93;;;9.73;;
69008;SDS011;56065;52.472;13.380;2023-01-09T06:04:14;22.77;;;10.30;;
69008;SDS011;56065;52.472;13.380;2023-01-09T06:06:39;24.40;;;11.00;;
69008;SDS011;56065;52.472;13.380;2023-01-09T06:09:05;24.10;;;10.55;;
69008;SDS011;56065;52.472;13.380;2023-01-09T06:11:31;25.43;;;11.40;;
69008;SDS011;56065;52.472;13.380;2023-01-09T06:13:59;21.55;;;9.20;;
69008;SDS011;56065;52.472;13.380;2023-01-09T06:16:25;22.52;;;10.45;;
69008;SDS011;56065;52.472;13.380;2023-01-09T06:18:50;24.07;;;10.20;;
69008;SDS011;56065;52.472;13.380;2023-01-09T06:21:15;26.80;;;11.07;;
69008;SDS011;56065;52.472;13.380;2023-01-09T06:23:41;24.37;;;11.17;;
69008;SDS011;56065;52.472;13.380;2023-01-09T06:26:06;26.00;;;11.63;;
69008;SDS011;56065;52.472;13.380;2023-01-09T06:28:31;24.17;;;10.13;;
69008;SDS011;56065;52.472;13.380;2023-01-09T06:30:57;25.20;;;12.00;;
69008;SDS011;56065;52.472;13.380;2023-01-09T06:33:23;26.00;;;11.10;;
69008;SDS011;56065;52.472;13.380;2023-01-09T06:35:48;25.37;;;11.10;;
69008;SDS011;56065;52.472;13.380;2023-01-09T06:38:13;26.30;;;11.50;;
69008;SDS011;56065;52.472;13.380;2023-01-09T06:40:39;27.02;;;11.88;;
69008;SDS011;56065;52.472;13.380;2023-01-09T06:43:04;24.87;;;10.90;;
69008;SDS011;56065;52.472;13.380;2023-01-09T06:45:29;24.53;;;11.03;;
69008;SDS011;56065;52.472;13.380;2023-01-09T06:47:55;26.27;;;11.47;;
69008;SDS011;56065;52.472;13.380;2023-01-09T06:50:20;26.47;;;11.80;;
69008;SDS011;56065;52.472;13.380;2023-01-09T06:52:45;26.30;;;11.47;;
69008;SDS011;56065;52.472;13.380;2023-01-09T06:55:11;29.63;;;12.13;;
69008;SDS011;56065;52.472;13.380;2023-01-09T06:57:36;25.95;;;11.45;;
69008;SDS011;56065;52.472;13.380;2023-01-09T07:00:02;23.77;;;10.97;;
69008;SDS011;56065;52.472;13.380;2023-01-09T07:02:28;29.00;;;11.30;;
69008;SDS011;56065;52.472;13.380;2023-01-09T07:04:53;23.37;;;10.57;;
69008;SDS011;56065;52.472;13.380;2023-01-09T07:07:19;28.03;;;12.13;;
69008;SDS011;56065;52.472;13.380;2023-01-09T07:09:46;21.85;;;9.65;;
69008;SDS011;56065;52.472;13.380;2023-01-09T07:12:12;25.67;;;11.27;;
69008;SDS011;56065;52.472;13.380;2023-01-09T07:14:38;22.52;;;11.20;;
69008;SDS011;56065;52.472;13.380;2023-01-09T07:17:04;27.37;;;10.87;;
69008;SDS011;56065;52.472;13.380;2023-01-09T07:19:29;23.97;;;10.67;;
69008;SDS011;56065;52.472;13.380;2023-01-09T07:21:55;26.27;;;11.90;;
69008;SDS011;56065;52.472;13.380;2023-01-09T07:24:20;27.23;;;11.50;;
69008;SDS011;56065;52.472;13.380;2023-01-09T07:26:45;24.00;;;11.53;;
69008;SDS011;56065;52.472;13.380;2023-01-09T07:29:11;22.17;;;9.77;;
69008;SDS011;56065;52.472;13.380;2023-01-09T07:31:37;21.73;;;8.98;;
69008;SDS011;56065;52.472;13.380;2023-01-09T07:34:02;24.40;;;11.73;;
69008;SDS011;56065;52.472;13.380;2023-01-09T07:36:27;22.13;;;9.43;;
69008;SDS011;56065;52.472;13.380;2023-01-09T07:38:53;26.73;;;10.70;;
69008;SDS011;56065;52.472;13.380;2023-01-09T07:41:18;28.07;;;11.50;;
69008;SDS011;56065;52.472;13.380;2023-01-09T07:43:43;22.17;;;11.00;;
69008;SDS011;56065;52.472;13.380;2023-01-09T07:46:09;21.53;;;9.47;;
69008;SDS011;56065;52.472;13.380;2023-01-09T07:48:34;25.93;;;10.23;;
69008;SDS011;56065;52.472;13.380;2023-01-09T07:51:00;23.50;;;10.07;;
69008;SDS011;56065;52.472;13.380;2023-01-09T07:53:25;24.17;;;9.20;;
69008;SDS011;56065;52.472;13.380;2023-01-09T07:55:50;20.97;;;10.10;;
69008;SDS011;56065;52.472;13.380;2023-01-09T07:58:16;22.43;;;10.73;;
69008;SDS011;56065;52.472;13.380;2023-01-09T08:00:41;24.33;;;10.43;;
69008;SDS011;56065;52.472;13.380;2023-01-09T08:03:06;33.70;;;14.17;;
69008;SDS011;56065;52.472;13.380;2023-01-09T08:05:32;32.03;;;13.73;;
69008;SDS011;56065;52.472;13.380;2023-01-09T08:07:57;19.87;;;9.93;;
69008;SDS011;56065;52.472;13.380;2023-01-09T08:10:23;23.17;;;10.63;;
69008;SDS011;56065;52.472;13.380;2023-01-09T08:12:48;22.63;;;10.20;;
69008;SDS011;56065;52.472;13.380;2023-01-09T08:15:14;28.02;;;11.27;;
69008;SDS011;56065;52.472;13.380;2023-01-09T08:17:40;21.63;;;9.90;;
69008;SDS011;56065;52.472;13.380;2023-01-09T08:20:08;25.23;;;10.40;;
69008;SDS011;56065;52.472;13.380;2023-01-09T08:22:35;27.38;;;11.55;;
69008;SDS011;56065;52.472;13.380;2023-01-09T08:25:01;28.03;;;11.33;;
69008;SDS011;56065;52.472;13.380;2023-01-09T08:27:26;25.80;;;10.75;;
69008;SDS011;56065;52.472;13.380;2023-01-09T08:29:51;24.63;;;10.93;;
69008;SDS011;56065;52.472;13.380;2023-01-09T08:32:17;22.87;;;9.70;;
69008;SDS011;56065;52.472;13.380;2023-01-09T08:34:42;23.07;;;9.87;;
69008;SDS011;56065;52.472;13.380;2023-01-09T08:37:07;28.47;;;12.07;;
69008;SDS011;56065;52.472;13.380;2023-01-09T08:39:33;25.07;;;10.80;;
69008;SDS011;56065;52.472;13.380;2023-01-09T08:41:59;25.20;;;10.82;;
69008;SDS011;56065;52.472;13.380;2023-01-09T08:44:44;20.90;;;8.73;;
69008;SDS011;56065;52.472;13.380;2023-01-09T08:47:27;24.20;;;10.15;;
69008;SDS011;56065;52.472;13.380;2023-01-09T08:49:57;19.00;;;7.70;;
69008;SDS011;56065;52.472;13.380;2023-01-09T08:52:22;25.13;;;10.70;;
69008;SDS011;56065;52.472;13.380;2023-01-09T08:54:48;22.00;;;9.63;;
69008;SDS011;56065;52.472;13.380;2023-01-09T08:57:13;21.20;;;9.87;;
69008;SDS011;56065;52.472;13.380;2023-01-09T08:59:39;22.90;;;9.90;;
69008;SDS011;56065;52.472;13.380;2023-01-09T09:02:04;17.83;;;8.13;;
69008;SDS011;56065;52.472;13.380;2023-01-09T09:04:29;23.77;;;10.40;;
69008;SDS011;56065;52.472;13.380;2023-01-09T09:06:55;21.53;;;10.30;;
69008;SDS011;56065;52.472;13.380;2023-01-09T09:09:20;22.80;;;9.73;;
69008;SDS011;56065;52.472;13.380;2023-01-09T09:11:45;22.87;;;9.43;;
69008;SDS011;56065;52.472;13.380;2023-01-09T09:14:11;23.77;;;9.13;;
69008;SDS011;56065;52.472;13.380;2023-01-09T09:16:55;17.98;;;8.05;;
69008;SDS011;56065;52.472;13.380;2023-01-09T09:19:20;21.40;;;9.10;;
69008;SDS011;56065;52.472;13.380;2023-01-09T09:21:46;20.70;;;8.65;;
69008;SDS011;56065;52.472;13.380;2023-01-09T09:24:11;21.83;;;9.30;;
69008;SDS011;56065;52.472;13.380;2023-01-09T09:26:37;22.33;;;9.60;;
69008;SDS011;56065;52.472;13.380;2023-01-09T09:29:02;23.08;;;9.57;;
69008;SDS011;56065;52.472;13.380;2023-01-09T09:31:28;21.10;;;8.30;;
69008;SDS011;56065;52.472;13.380;2023-01-09T09:33:53;21.50;;;8.20;;
69008;SDS011;56065;52.472;13.380;2023-01-09T09:36:18;19.80;;;8.40;;
69008;SDS011;56065;52.472;13.380;2023-01-09T09:38:44;23.03;;;10.17;;
69008;SDS011;56065;52.472;13.380;2023-01-09T09:50:11;19.98;;;9.43;;
69008;SDS011;56065;52.472;13.380;2023-01-09T09:52:43;19.77;;;8.98;;
69008;SDS011;56065;52.472;13.380;2023-01-09T09:55:23;19.73;;;8.07;;
69008;SDS011;56065;52.472;13.380;2023-01-09T09:57:53;20.58;;;9.35;;
69008;SDS011;56065;52.472;13.380;2023-01-09T10:00:21;19.75;;;8.70;;
69008;SDS011;56065;52.472;13.380;2023-01-09T10:05:33;17.10;;;7.47;;
69008;SDS011;56065;52.472;13.380;2023-01-09T10:08:04;19.20;;;8.43;;
69008;SDS011;56065;52.472;13.380;2023-01-09T10:10:39;18.15;;;7.45;;
69008;SDS011;56065;52.472;13.380;2023-01-09T10:13:12;15.40;;;6.63;;
69008;SDS011;56065;52.472;13.380;2023-01-09T10:21:56;15.93;;;6.47;;
69008;SDS011;56065;52.472;13.380;2023-01-09T10:24:40;13.82;;;5.55;;
69008;SDS011;56065;52.472;13.380;2023-01-09T10:27:19;12.85;;;5.18;;
69008;SDS011;56065;52.472;13.380;2023-01-09T10:30:02;14.20;;;6.28;;
69008;SDS011;56065;52.472;13.380;2023-01-09T10:35:20;12.77;;;5.47;;
69008;SDS011;56065;52.472;13.380;2023-01-09T10:38:07;12.07;;;5.32;;
69008;SDS011;56065;52.472;13.380;2023-01-09T10:40:45;14.45;;;5.80;;
69008;SDS011;56065;52.472;13.380;2023-01-09T10:43:58;12.77;;;5.38;;
69008;SDS011;56065;52.472;13.380;2023-01-09T10:46:27;12.75;;;4.90;;
69008;SDS011;56065;52.472;13.380;2023-01-09T10:48:58;11.73;;;5.43;;
69008;SDS011;56065;52.472;13.380;2023-01-09T10:51:34;12.00;;;4.68;;
69008;SDS011;56065;52.472;13.380;2023-01-09T10:54:11;11.77;;;5.07;;
69008;SDS011;56065;52.472;13.380;2023-01-09T10:56:38;11.70;;;4.65;;
69008;SDS011;56065;52.472;13.380;2023-01-09T10:59:09;11.32;;;4.88;;
69008;SDS011;56065;52.472;13.380;2023-01-09T11:01:36;10.20;;;4.30;;
69008;SDS011;56065;52.472;13.380;2023-01-09T11:04:22;11.15;;;4.88;;
69008;SDS011;56065;52.472;13.380;2023-01-09T11:07:01;10.60;;;4.63;;
69008;SDS011;56065;52.472;13.380;2023-01-09T11:12:25;11.85;;;4.35;;
69008;SDS011;56065;52.472;13.380;2023-01-09T11:14:55;9.38;;;3.65;;
69008;SDS011;56065;52.472;13.380;2023-01-09T11:17:41;11.55;;;4.93;;
69008;SDS011;56065;52.472;13.380;2023-01-09T11:20:14;11.85;;;4.80;;
69008;SDS011;56065;52.472;13.380;2023-01-09T11:22:52;10.73;;;3.97;;
69008;SDS011;56065;52.472;13.380;2023-01-09T11:25:19;9.27;;;4.07;;
69008;SDS011;56065;52.472;13.380;2023-01-09T11:30:31;9.95;;;3.67;;
69008;SDS011;56065;52.472;13.380;2023-01-09T11:33:00;7.97;;;3.53;;
69008;SDS011;56065;52.472;13.380;2023-01-09T11:35:38;7.67;;;3.00;;
69008;SDS011;56065;52.472;13.380;2023-01-09T11:38:18;7.00;;;3.20;;
69008;SDS011;56065;52.472;13.380;2023-01-09T11:40:45;8.73;;;3.50;;
69008;SDS011;56065;52.472;13.380;2023-01-09T11:45:49;8.82;;;2.92;;
69008;SDS011;56065;52.472;13.380;2023-01-09T11:48:35;8.98;;;3.03;;
69008;SDS011;56065;52.472;13.380;2023-01-09T11:51:02;8.10;;;2.63;;
69008;SDS011;56065;52.472;13.380;2023-01-09T11:53:40;7.57;;;2.83;;
69008;SDS011;56065;52.472;13.380;2023-01-09T11:56:13;7.50;;;2.80;;
69008;SDS011;56065;52.472;13.380;2023-01-09T11:58:41;7.53;;;2.35;;
69008;SDS011;56065;52.472;13.380;2023-01-09T12:06:31;7.85;;;2.60;;
69008;SDS011;56065;52.472;13.380;2023-01-09T12:09:01;7.53;;;2.30;;
69008;SDS011;56065;52.472;13.380;2023-01-09T12:14:30;6.60;;;1.67;;
69008;SDS011;56065;52.472;13.380;2023-01-09T12:33:29;5.28;;;1.50;;
69008;SDS011;56065;52.472;13.380;2023-01-09T12:49:58;7.32;;;1.80;;
69008;SDS011;56065;52.472;13.380;2023-01-09T12:52:25;5.45;;;1.42;;
69008;SDS011;56065;52.472;13.380;2023-01-09T12:57:31;7.70;;;2.10;;
69008;SDS011;56065;52.472;13.380;2023-01-09T13:03:11;6.65;;;1.40;;
69008;SDS011;56065;52.472;13.380;2023-01-09T13:05:43;6.00;;;1.75;;
69008;SDS011;56065;52.472;13.380;2023-01-09T13:08:13;6.05;;;1.58;;
69008;SDS011;56065;52.472;13.380;2023-01-09T13:10:45;5.90;;;1.80;;
69008;SDS011;56065;52.472;13.380;2023-01-09T13:16:03;4.80;;;1.50;;
69008;SDS011;56065;52.472;13.380;2023-01-09T13:21:05;5.43;;;1.33;;
69008;SDS011;56065;52.472;13.380;2023-01-09T13:25:57;5.17;;;1.40;;
69008;SDS011;56065;52.472;13.380;2023-01-09T13:28:27;5.70;;;1.67;;
69008;SDS011;56065;52.472;13.380;2023-01-09T13:31:01;6.57;;;1.13;;
69008;SDS011;56065;52.472;13.380;2023-01-09T13:33:36;7.68;;;1.13;;
69008;SDS011;56065;52.472;13.380;2023-01-09T13:36:04;3.97;;;1.00;;
69008;SDS011;56065;52.472;13.380;2023-01-09T13:38:31;3.70;;;1.17;;
69008;SDS011;56065;52.472;13.380;2023-01-09T13:44:03;6.05;;;1.20;;
69008;SDS011;56065;52.472;13.380;2023-01-09T13:46:54;6.45;;;1.10;;
69008;SDS011;56065;52.472;13.380;2023-01-09T13:52:27;4.00;;;1.00;;
69008;SDS011;56065;52.472;13.380;2023-01-09T13:59:52;4.93;;;1.00;;
69008;SDS011;56065;52.472;13.380;2023-01-09T14:04:58;6.78;;;1.45;;
69008;SDS011;56065;52.472;13.380;2023-01-09T14:07:25;3.97;;;0.80;;
69008;SDS011;56065;52.472;13.380;2023-01-09T14:09:54;7.30;;;1.33;;
69008;SDS011;56065;52.472;13.380;2023-01-09T14:12:22;6.82;;;1.13;;
69008;SDS011;56065;52.472;13.380;2023-01-09T14:14:48;6.38;;;1.30;;
69008;SDS011;56065;52.472;13.380;2023-01-09T14:17:52;8.05;;;1.63;;
69008;SDS011;56065;52.472;13.380;2023-01-09T14:20:17;5.43;;;1.13;;
69008;SDS011;56065;52.472;13.380;2023-01-09T14:22:50;6.35;;;1.50;;
69008;SDS011;56065;52.472;13.380;2023-01-09T14:25:24;10.23;;;1.50;;
69008;SDS011;56065;52.472;13.380;2023-01-09T14:43:30;6.05;;;1.20;;
69008;SDS011;56065;52.472;13.380;2023-01-09T14:46:07;4.45;;;1.10;;
69008;SDS011;56065;52.472;13.380;2023-01-09T14:48:38;6.53;;;1.23;;
69008;SDS011;56065;52.472;13.380;2023-01-09T14:51:15;4.57;;;1.02;;
69008;SDS011;56065;52.472;13.380;2023-01-09T14:53:40;7.45;;;1.20;;
69008;SDS011;56065;52.472;13.380;2023-01-09T14:56:16;5.63;;;1.08;;
69008;SDS011;56065;52.472;13.380;2023-01-09T15:01:49;8.30;;;1.48;;
69008;SDS011;56065;52.472;13.380;2023-01-09T15:04:26;7.43;;;1.10;;
69008;SDS011;56065;52.472;13.380;2023-01-09T15:06:59;6.65;;;1.40;;
69008;SDS011;56065;52.472;13.380;2023-01-09T15:11:54;4.47;;;0.90;;
69008;SDS011;56065;52.472;13.380;2023-01-09T15:14:32;7.63;;;0.93;;
69008;SDS011;56065;52.472;13.380;2023-01-09T15:17:00;6.10;;;1.02;;
69008;SDS011;56065;52.472;13.380;2023-01-09T15:19:27;6.80;;;1.55;;
69008;SDS011;56065;52.472;13.380;2023-01-09T15:21:57;4.57;;;1.17;;
69008;SDS011;56065;52.472;13.380;2023-01-09T15:24:26;7.15;;;1.10;;
69008;SDS011;56065;52.472;13.380;2023-01-09T15:27:03;8.37;;;1.00;;
69008;SDS011;56065;52.472;13.380;2023-01-09T15:29:34;4.80;;;1.13;;
69008;SDS011;56065;52.472;13.380;2023-01-09T15:32:04;6.00;;;1.20;;
69008;SDS011;56065;52.472;13.380;2023-01-09T15:34:30;5.95;;;1.15;;
69008;SDS011;56065;52.472;13.380;2023-01-09T15:36:56;5.95;;;1.27;;
69008;SDS011;56065;52.472;13.380;2023-01-09T15:39:24;6.40;;;1.47;;
69008;SDS011;56065;52.472;13.380;2023-01-09T15:41:52;5.50;;;0.93;;
69008;SDS011;56065;52.472;13.380;2023-01-09T15:44:38;4.55;;;1.27;;
69008;SDS011;56065;52.472;13.380;2023-01-09T15:47:07;5.95;;;1.08;;
69008;SDS011;56065;52.472;13.380;2023-01-09T15:49:40;4.90;;;1.00;;
69008;SDS011;56065;52.472;13.380;2023-01-09T15:52:06;7.30;;;1.43;;
69008;SDS011;56065;52.472;13.380;2023-01-09T15:54:35;7.15;;;1.20;;
69008;SDS011;56065;52.472;13.380;2023-01-09T15:59:49;6.32;;;1.30;;
69008;SDS011;56065;52.472;13.380;2023-01-09T16:02:17;5.78;;;1.40;;
69008;SDS011;56065;52.472;13.380;2023-01-09T16:05:06;5.33;;;1.23;;
69008;SDS011;56065;52.472;13.380;2023-01-09T16:07:33;6.32;;;1.15;;
69008;SDS011;56065;52.472;13.380;2023-01-09T16:09:59;8.10;;;1.30;;
69008;SDS011;56065;52.472;13.380;2023-01-09T16:12:25;4.80;;;1.02;;
69008;SDS011;56065;52.472;13.380;2023-01-09T16:14:56;6.23;;;0.83;;
69008;SDS011;56065;52.472;13.380;2023-01-09T16:17:23;5.65;;;1.00;;
69008;SDS011;56065;52.472;13.380;2023-01-09T16:19:51;4.05;;;0.93;;
69008;SDS011;56065;52.472;13.380;2023-01-09T16:22:28;4.00;;;0.80;;
69008;SDS011;56065;52.472;13.380;2023-01-09T16:24:58;4.25;;;0.85;;
69008;SDS011;56065;52.472;13.380;2023-01-09T16:29:55;7.40;;;1.08;;
69008;SDS011;56065;52.472;13.380;2023-01-09T16:32:47;5.68;;;1.02;;
69008;SDS011;56065;52.472;13.380;2023-01-09T16:35:16;6.57;;;1.23;;
69008;SDS011;56065;52.472;13.380;2023-01-09T16:37:43;7.78;;;1.52;;
69008;SDS011;56065;52.472;13.380;2023-01-09T16:42:50;4.43;;;0.82;;
69008;SDS011;56065;52.472;13.380;2023-01-09T16:48:01;3.80;;;0.82;;
69008;SDS011;56065;52.472;13.380;2023-01-09T16:50:27;7.27;;;0.93;;
69008;SDS011;56065;52.472;13.380;2023-01-09T16:52:53;3.40;;;0.80;;
69008;SDS011;56065;52.472;13.380;2023-01-09T16:55:20;4.63;;;1.07;;
69008;SDS011;56065;52.472;13.380;2023-01-09T16:57:45;5.28;;;1.00;;
69008;SDS011;56065;52.472;13.380;2023-01-09T17:00:14;2.77;;;0.70;;
69008;SDS011;56065;52.472;13.380;2023-01-09T17:02:43;4.03;;;0.85;;
69008;SDS011;56065;52.472;13.380;2023-01-09T17:05:09;8.03;;;0.97;;
69008;SDS011;56065;52.472;13.380;2023-01-09T17:07:34;3.50;;;0.70;;
69008;SDS011;56065;52.472;13.380;2023-01-09T17:10:02;4.85;;;0.75;;
69008;SDS011;56065;52.472;13.380;2023-01-09T17:12:28;3.53;;;0.70;;
69008;SDS011;56065;52.472;13.380;2023-01-09T17:14:54;5.37;;;0.87;;